sensor_id;sensor_type;location;lat;lon;timestamp;P1;durP1;ratioP1;P2;durP2;ratioP2
37857;SDS011;23695;55.868;37.472;2022-12-29T00:02:26;1.63;;;1.02;;
37857;SDS011;23695;55.868;37.472;2022-12-29T00:04:53;2.72;;;1.02;;
37857;SDS011;23695;55.868;37.472;2022-12-29T00:07:19;3.20;;;1.05;;
37857;SDS011;23695;55.868;37.472;2022-12-29T00:09:46;2.95;;;0.93;;
37857;SDS011;23695;55.868;37.472;2022-12-29T00:12:12;2.50;;;1.13;;
37857;SDS011;23695;55.868;37.472;2022-12-29T00:14:39;2.83;;;1.27;;
37857;SDS011;23695;55.868;37.472;2022-12-29T00:17:06;2.53;;;0.90;;
37857;SDS011;23695;55.868;37.472;2022-12-29T00:19:32;1.98;;;0.70;;
37857;SDS011;23695;55.868;37.472;2022-12-29T00:21:59;3.45;;;1.05;;
37857;SDS011;23695;55.868;37.472;2022-12-29T00:24:25;4.00;;;1.23;;
37857;SDS011;23695;55.868;37.472;2022-12-29T00:26:53;1.73;;;0.90;;
37857;SDS011;23695;55.868;37.472;2022-12-29T00:29:21;6.22;;;0.90;;
37857;SDS011;23695;55.868;37.472;2022-12-29T00:31:47;2.33;;;0.90;;
37857;SDS011;23695;55.868;37.472;2022-12-29T00:34:14;1.63;;;0.93;;
37857;SDS011;23695;55.868;37.472;2022-12-29T00:36:40;1.50;;;0.77;;
37857;SDS011;23695;55.868;37.472;2022-12-29T00:39:09;1.80;;;0.90;;
37857;SDS011;23695;55.868;37.472;2022-12-29T00:41:36;2.75;;;1.00;;
37857;SDS011;23695;55.868;37.472;2022-12-29T00:44:03;2.67;;;0.75;;
37857;SDS011;23695;55.868;37.472;2022-12-29T00:46:30;1.33;;;0.70;;
37857;SDS011;23695;55.868;37.472;2022-12-29T00:48:57;3.92;;;1.10;;
37857;SDS011;23695;55.868;37.472;2022-12-29T00:51:24;2.28;;;1.00;;
37857;SDS011;23695;55.868;37.472;2022-12-29T00:53:51;1.63;;;0.90;;
37857;SDS011;23695;55.868;37.472;2022-12-29T00:56:17;1.20;;;0.75;;
37857;SDS011;23695;55.868;37.472;2022-12-29T00:58:44;3.50;;;1.17;;
37857;SDS011;23695;55.868;37.472;2022-12-29T01:01:10;1.45;;;0.60;;
37857;SDS011;23695;55.868;37.472;2022-12-29T01:03:37;3.83;;;1.10;;
37857;SDS011;23695;55.868;37.472;2022-12-29T01:06:05;2.15;;;0.75;;
37857;SDS011;23695;55.868;37.472;2022-12-29T01:08:32;1.83;;;0.77;;
37857;SDS011;23695;55.868;37.472;2022-12-29T01:11:10;4.18;;;0.98;;
37857;SDS011;23695;55.868;37.472;2022-12-29T01:13:37;1.30;;;0.70;;
37857;SDS011;23695;55.868;37.472;2022-12-29T01:16:04;1.73;;;0.60;;
37857;SDS011;23695;55.868;37.472;2022-12-29T01:18:32;2.03;;;0.63;;
37857;SDS011;23695;55.868;37.472;2022-12-29T01:21:03;2.25;;;0.90;;
37857;SDS011;23695;55.868;37.472;2022-12-29T01:23:30;1.98;;;1.10;;
37857;SDS011;23695;55.868;37.472;2022-12-29T01:25:57;2.28;;;0.93;;
37857;SDS011;23695;55.868;37.472;2022-12-29T01:28:34;2.83;;;0.95;;
37857;SDS011;23695;55.868;37.472;2022-12-29T01:31:00;2.35;;;0.95;;
37857;SDS011;23695;55.868;37.472;2022-12-29T01:33:27;4.82;;;1.30;;
37857;SDS011;23695;55.868;37.472;2022-12-29T01:35:53;2.80;;;1.00;;
37857;SDS011;23695;55.868;37.472;2022-12-29T01:38:20;4.60;;;1.08;;
37857;SDS011;23695;55.868;37.472;2022-12-29T01:40:46;3.15;;;1.00;;
37857;SDS011;23695;55.868;37.472;2022-12-29T01:43:13;2.50;;;1.00;;
37857;SDS011;23695;55.868;37.472;2022-12-29T01:45:50;2.70;;;1.05;;
37857;SDS011;23695;55.868;37.472;2022-12-29T01:48:18;2.38;;;0.80;;
37857;SDS011;23695;55.868;37.472;2022-12-29T01:50:46;1.63;;;0.80;;
37857;SDS011;23695;55.868;37.472;2022-12-29T01:53:18;2.20;;;1.05;;
37857;SDS011;23695;55.868;37.472;2022-12-29T01:55:46;4.93;;;1.20;;
37857;SDS011;23695;55.868;37.472;2022-12-29T01:58:14;1.88;;;0.70;;
37857;SDS011;23695;55.868;37.472;2022-12-29T02:00:41;1.88;;;1.00;;
37857;SDS011;23695;55.868;37.472;2022-12-29T02:03:08;3.00;;;0.90;;
37857;SDS011;23695;55.868;37.472;2022-12-29T02:05:46;3.25;;;1.00;;
37857;SDS011;23695;55.868;37.472;2022-12-29T02:08:14;3.65;;;1.10;;
37857;SDS011;23695;55.868;37.472;2022-12-29T02:10:41;3.35;;;1.30;;
37857;SDS011;23695;55.868;37.472;2022-12-29T02:13:08;3.25;;;1.35;;
37857;SDS011;23695;55.868;37.472;2022-12-29T02:15:39;3.78;;;1.10;;
37857;SDS011;23695;55.868;37.472;2022-12-29T02:26:02;3.03;;;0.70;;
37857;SDS011;23695;55.868;37.472;2022-12-29T02:33:30;2.22;;;1.02;;
37857;SDS011;23695;55.868;37.472;2022-12-29T02:38:33;1.95;;;0.80;;
37857;SDS011;23695;55.868;37.472;2022-12-29T02:44:07;2.42;;;1.10;;
37857;SDS011;23695;55.868;37.472;2022-12-29T02:46:47;1.92;;;0.90;;
37857;SDS011;23695;55.868;37.472;2022-12-29T02:51:55;2.63;;;1.00;;
37857;SDS011;23695;55.868;37.472;2022-12-29T02:54:23;3.20;;;1.02;;
37857;SDS011;23695;55.868;37.472;2022-12-29T02:56:50;2.50;;;0.90;;
37857;SDS011;23695;55.868;37.472;2022-12-29T02:59:17;1.80;;;0.90;;
37857;SDS011;23695;55.868;37.472;2022-12-29T03:02:06;2.53;;;1.00;;
37857;SDS011;23695;55.868;37.472;2022-12-29T03:10:08;4.63;;;1.10;;
37857;SDS011;23695;55.868;37.472;2022-12-29T03:12:42;3.13;;;1.10;;
37857;SDS011;23695;55.868;37.472;2022-12-29T03:15:13;3.00;;;1.00;;
37857;SDS011;23695;55.868;37.472;2022-12-29T03:18:04;1.45;;;0.60;;
37857;SDS011;23695;55.868;37.472;2022-12-29T03:20:37;2.13;;;1.02;;
37857;SDS011;23695;55.868;37.472;2022-12-29T03:23:04;2.15;;;1.02;;
37857;SDS011;23695;55.868;37.472;2022-12-29T03:25:33;2.10;;;0.82;;
37857;SDS011;23695;55.868;37.472;2022-12-29T03:28:03;2.50;;;1.05;;
37857;SDS011;23695;55.868;37.472;2022-12-29T03:30:30;2.67;;;0.90;;
37857;SDS011;23695;55.868;37.472;2022-12-29T03:33:01;2.78;;;1.00;;
37857;SDS011;23695;55.868;37.472;2022-12-29T03:35:30;4.95;;;1.00;;
37857;SDS011;23695;55.868;37.472;2022-12-29T03:40:33;3.08;;;1.08;;
37857;SDS011;23695;55.868;37.472;2022-12-29T03:43:01;2.63;;;1.05;;
37857;SDS011;23695;55.868;37.472;2022-12-29T03:45:28;4.13;;;1.20;;
37857;SDS011;23695;55.868;37.472;2022-12-29T03:47:55;3.35;;;0.70;;
37857;SDS011;23695;55.868;37.472;2022-12-29T03:50:21;2.28;;;0.90;;
37857;SDS011;23695;55.868;37.472;2022-12-29T03:52:48;3.13;;;0.98;;
37857;SDS011;23695;55.868;37.472;2022-12-29T03:55:14;3.38;;;0.95;;
37857;SDS011;23695;55.868;37.472;2022-12-29T03:57:41;2.83;;;0.82;;
37857;SDS011;23695;55.868;37.472;2022-12-29T04:00:08;4.50;;;1.10;;
37857;SDS011;23695;55.868;37.472;2022-12-29T04:02:34;3.28;;;0.93;;
37857;SDS011;23695;55.868;37.472;2022-12-29T04:05:02;1.83;;;0.80;;
37857;SDS011;23695;55.868;37.472;2022-12-29T04:07:29;3.47;;;0.98;;
37857;SDS011;23695;55.868;37.472;2022-12-29T04:09:56;2.38;;;0.88;;
37857;SDS011;23695;55.868;37.472;2022-12-29T04:12:24;4.53;;;1.10;;
37857;SDS011;23695;55.868;37.472;2022-12-29T04:14:50;2.78;;;0.98;;
37857;SDS011;23695;55.868;37.472;2022-12-29T04:17:17;3.58;;;1.30;;
37857;SDS011;23695;55.868;37.472;2022-12-29T04:19:44;3.03;;;1.02;;
37857;SDS011;23695;55.868;37.472;2022-12-29T04:22:10;3.55;;;1.27;;
37857;SDS011;23695;55.868;37.472;2022-12-29T04:24:37;2.10;;;1.13;;
37857;SDS011;23695;55.868;37.472;2022-12-29T04:27:03;5.32;;;1.20;;
37857;SDS011;23695;55.868;37.472;2022-12-29T04:29:30;2.10;;;1.10;;
37857;SDS011;23695;55.868;37.472;2022-12-29T04:31:56;2.63;;;1.00;;
37857;SDS011;23695;55.868;37.472;2022-12-29T04:34:23;3.63;;;1.20;;
37857;SDS011;23695;55.868;37.472;2022-12-29T04:36:49;3.83;;;1.33;;
37857;SDS011;23695;55.868;37.472;2022-12-29T04:39:16;3.55;;;1.13;;
37857;SDS011;23695;55.868;37.472;2022-12-29T04:41:43;3.05;;;1.13;;
37857;SDS011;23695;55.868;37.472;2022-12-29T04:44:09;2.35;;;0.90;;
37857;SDS011;23695;55.868;37.472;2022-12-29T04:46:36;2.92;;;1.08;;
37857;SDS011;23695;55.868;37.472;2022-12-29T04:49:02;4.07;;;1.08;;
37857;SDS011;23695;55.868;37.472;2022-12-29T04:51:29;6.60;;;1.30;;
37857;SDS011;23695;55.868;37.472;2022-12-29T04:53:55;2.63;;;1.20;;
37857;SDS011;23695;55.868;37.472;2022-12-29T04:56:22;5.28;;;1.08;;
37857;SDS011;23695;55.868;37.472;2022-12-29T04:58:48;3.65;;;1.20;;
37857;SDS011;23695;55.868;37.472;2022-12-29T05:01:15;4.55;;;1.27;;
37857;SDS011;23695;55.868;37.472;2022-12-29T05:03:41;3.90;;;1.23;;
37857;SDS011;23695;55.868;37.472;2022-12-29T05:06:08;3.28;;;1.10;;
37857;SDS011;23695;55.868;37.472;2022-12-29T05:08:34;2.50;;;1.05;;
37857;SDS011;23695;55.868;37.472;2022-12-29T05:11:01;4.03;;;1.10;;
37857;SDS011;23695;55.868;37.472;2022-12-29T05:13:27;2.40;;;1.02;;
37857;SDS011;23695;55.868;37.472;2022-12-29T05:15:54;5.43;;;1.10;;
37857;SDS011;23695;55.868;37.472;2022-12-29T05:18:21;6.60;;;1.50;;
37857;SDS011;23695;55.868;37.472;2022-12-29T05:20:47;4.18;;;1.52;;
37857;SDS011;23695;55.868;37.472;2022-12-29T05:23:14;10.25;;;1.15;;
37857;SDS011;23695;55.868;37.472;2022-12-29T05:25:41;5.25;;;1.77;;
37857;SDS011;23695;55.868;37.472;2022-12-29T05:28:07;6.22;;;1.58;;
37857;SDS011;23695;55.868;37.472;2022-12-29T05:30:34;4.85;;;1.48;;
37857;SDS011;23695;55.868;37.472;2022-12-29T05:33:00;6.28;;;1.35;;
37857;SDS011;23695;55.868;37.472;2022-12-29T05:35:27;3.00;;;1.20;;
37857;SDS011;23695;55.868;37.472;2022-12-29T05:37:53;7.72;;;2.03;;
37857;SDS011;23695;55.868;37.472;2022-12-29T05:40:20;7.75;;;1.50;;
37857;SDS011;23695;55.868;37.472;2022-12-29T05:42:46;6.22;;;1.35;;
37857;SDS011;23695;55.868;37.472;2022-12-29T05:45:13;5.13;;;1.63;;
37857;SDS011;23695;55.868;37.472;2022-12-29T05:47:39;5.38;;;1.27;;
37857;SDS011;23695;55.868;37.472;2022-12-29T05:50:06;6.30;;;1.48;;
37857;SDS011;23695;55.868;37.472;2022-12-29T05:52:34;6.10;;;1.65;;
37857;SDS011;23695;55.868;37.472;2022-12-29T05:55:00;5.32;;;1.52;;
37857;SDS011;23695;55.868;37.472;2022-12-29T05:57:27;4.80;;;1.20;;
37857;SDS011;23695;55.868;37.472;2022-12-29T05:59:53;3.97;;;1.15;;
37857;SDS011;23695;55.868;37.472;2022-12-29T06:02:20;4.20;;;1.05;;
37857;SDS011;23695;55.868;37.472;2022-12-29T06:04:47;3.67;;;1.27;;
37857;SDS011;23695;55.868;37.472;2022-12-29T06:07:13;3.50;;;1.17;;
37857;SDS011;23695;55.868;37.472;2022-12-29T06:09:40;4.53;;;1.63;;
37857;SDS011;23695;55.868;37.472;2022-12-29T06:12:06;2.55;;;1.30;;
37857;SDS011;23695;55.868;37.472;2022-12-29T06:14:33;6.00;;;1.60;;
37857;SDS011;23695;55.868;37.472;2022-12-29T06:16:59;4.90;;;1.85;;
37857;SDS011;23695;55.868;37.472;2022-12-29T06:19:26;7.07;;;1.70;;
37857;SDS011;23695;55.868;37.472;2022-12-29T06:21:52;11.75;;;1.90;;
37857;SDS011;23695;55.868;37.472;2022-12-29T06:24:19;11.95;;;1.80;;
37857;SDS011;23695;55.868;37.472;2022-12-29T06:26:46;11.43;;;1.55;;
37857;SDS011;23695;55.868;37.472;2022-12-29T06:29:12;7.97;;;1.33;;
37857;SDS011;23695;55.868;37.472;2022-12-29T06:31:39;8.30;;;1.38;;
37857;SDS011;23695;55.868;37.472;2022-12-29T06:34:06;11.50;;;2.03;;
37857;SDS011;23695;55.868;37.472;2022-12-29T06:36:34;11.05;;;1.90;;
37857;SDS011;23695;55.868;37.472;2022-12-29T06:39:00;11.82;;;1.60;;
37857;SDS011;23695;55.868;37.472;2022-12-29T06:41:27;7.55;;;1.70;;
37857;SDS011;23695;55.868;37.472;2022-12-29T06:43:57;8.05;;;1.75;;
37857;SDS011;23695;55.868;37.472;2022-12-29T06:46:24;10.40;;;1.73;;
37857;SDS011;23695;55.868;37.472;2022-12-29T06:48:51;9.23;;;1.77;;
37857;SDS011;23695;55.868;37.472;2022-12-29T06:51:17;6.50;;;1.73;;
37857;SDS011;23695;55.868;37.472;2022-12-29T06:53:44;7.60;;;1.60;;
37857;SDS011;23695;55.868;37.472;2022-12-29T06:56:10;4.43;;;1.80;;
37857;SDS011;23695;55.868;37.472;2022-12-29T06:58:37;4.95;;;1.70;;
37857;SDS011;23695;55.868;37.472;2022-12-29T07:01:03;9.50;;;1.60;;
37857;SDS011;23695;55.868;37.472;2022-12-29T07:03:30;6.90;;;1.70;;
37857;SDS011;23695;55.868;37.472;2022-12-29T07:05:56;6.65;;;1.77;;
37857;SDS011;23695;55.868;37.472;2022-12-29T07:08:23;7.13;;;2.00;;
37857;SDS011;23695;55.868;37.472;2022-12-29T07:10:50;7.57;;;2.15;;
37857;SDS011;23695;55.868;37.472;2022-12-29T07:13:16;8.73;;;1.77;;
37857;SDS011;23695;55.868;37.472;2022-12-29T07:15:43;5.07;;;1.80;;
37857;SDS011;23695;55.868;37.472;2022-12-29T07:18:09;6.68;;;1.83;;
37857;SDS011;23695;55.868;37.472;2022-12-29T07:20:36;6.68;;;2.08;;
37857;SDS011;23695;55.868;37.472;2022-12-29T07:23:02;7.38;;;2.10;;
37857;SDS011;23695;55.868;37.472;2022-12-29T07:25:29;7.43;;;2.03;;
37857;SDS011;23695;55.868;37.472;2022-12-29T07:27:55;5.63;;;1.80;;
37857;SDS011;23695;55.868;37.472;2022-12-29T07:30:22;3.92;;;2.00;;
37857;SDS011;23695;55.868;37.472;2022-12-29T07:32:48;6.22;;;1.70;;
37857;SDS011;23695;55.868;37.472;2022-12-29T07:35:15;6.13;;;1.50;;
37857;SDS011;23695;55.868;37.472;2022-12-29T07:37:42;5.45;;;1.63;;
37857;SDS011;23695;55.868;37.472;2022-12-29T07:40:09;4.18;;;1.40;;
37857;SDS011;23695;55.868;37.472;2022-12-29T07:42:36;4.25;;;1.65;;
37857;SDS011;23695;55.868;37.472;2022-12-29T07:45:02;4.40;;;1.58;;
37857;SDS011;23695;55.868;37.472;2022-12-29T07:47:29;3.85;;;1.60;;
37857;SDS011;23695;55.868;37.472;2022-12-29T07:49:56;6.82;;;1.73;;
37857;SDS011;23695;55.868;37.472;2022-12-29T07:52:22;6.22;;;1.50;;
37857;SDS011;23695;55.868;37.472;2022-12-29T07:54:49;4.90;;;2.25;;
37857;SDS011;23695;55.868;37.472;2022-12-29T07:57:15;3.95;;;1.75;;
37857;SDS011;23695;55.868;37.472;2022-12-29T07:59:42;4.53;;;1.73;;
37857;SDS011;23695;55.868;37.472;2022-12-29T08:02:09;4.55;;;1.80;;
37857;SDS011;23695;55.868;37.472;2022-12-29T08:04:36;4.35;;;1.52;;
37857;SDS011;23695;55.868;37.472;2022-12-29T08:07:03;6.63;;;1.90;;
37857;SDS011;23695;55.868;37.472;2022-12-29T08:09:29;4.15;;;1.83;;
37857;SDS011;23695;55.868;37.472;2022-12-29T08:11:56;5.05;;;1.60;;
37857;SDS011;23695;55.868;37.472;2022-12-29T08:14:22;6.40;;;1.85;;
37857;SDS011;23695;55.868;37.472;2022-12-29T08:16:49;4.88;;;1.80;;
37857;SDS011;23695;55.868;37.472;2022-12-29T08:19:15;4.30;;;1.90;;
37857;SDS011;23695;55.868;37.472;2022-12-29T08:21:42;4.57;;;2.13;;
37857;SDS011;23695;55.868;37.472;2022-12-29T08:24:08;4.78;;;1.80;;
37857;SDS011;23695;55.868;37.472;2022-12-29T08:26:35;5.00;;;2.10;;
37857;SDS011;23695;55.868;37.472;2022-12-29T08:29:02;5.93;;;2.00;;
37857;SDS011;23695;55.868;37.472;2022-12-29T08:31:28;5.13;;;1.70;;
37857;SDS011;23695;55.868;37.472;2022-12-29T08:33:55;6.80;;;1.90;;
37857;SDS011;23695;55.868;37.472;2022-12-29T08:36:21;6.18;;;1.77;;
37857;SDS011;23695;55.868;37.472;2022-12-29T08:38:49;7.00;;;2.05;;
37857;SDS011;23695;55.868;37.472;2022-12-29T08:41:15;4.07;;;1.80;;
37857;SDS011;23695;55.868;37.472;2022-12-29T08:43:45;3.88;;;1.90;;
37857;SDS011;23695;55.868;37.472;2022-12-29T08:46:11;2.88;;;1.67;;
37857;SDS011;23695;55.868;37.472;2022-12-29T08:48:38;4.65;;;1.85;;
37857;SDS011;23695;55.868;37.472;2022-12-29T08:51:04;5.65;;;1.45;;
37857;SDS011;23695;55.868;37.472;2022-12-29T08:53:31;4.55;;;2.17;;
37857;SDS011;23695;55.868;37.472;2022-12-29T08:55:58;4.47;;;1.92;;
37857;SDS011;23695;55.868;37.472;2022-12-29T08:58:30;4.20;;;1.90;;
37857;SDS011;23695;55.868;37.472;2022-12-29T09:00:56;5.22;;;1.85;;
37857;SDS011;23695;55.868;37.472;2022-12-29T09:03:23;5.13;;;1.92;;
37857;SDS011;23695;55.868;37.472;2022-12-29T09:06:10;5.95;;;2.13;;
37857;SDS011;23695;55.868;37.472;2022-12-29T09:08:37;5.80;;;1.65;;
37857;SDS011;23695;55.868;37.472;2022-12-29T09:11:11;3.03;;;1.77;;
37857;SDS011;23695;55.868;37.472;2022-12-29T09:13:38;3.95;;;2.00;;
37857;SDS011;23695;55.868;37.472;2022-12-29T09:16:05;5.90;;;1.65;;
37857;SDS011;23695;55.868;37.472;2022-12-29T09:18:32;4.75;;;2.03;;
37857;SDS011;23695;55.868;37.472;2022-12-29T09:21:00;4.85;;;1.95;;
37857;SDS011;23695;55.868;37.472;2022-12-29T09:23:27;5.28;;;2.03;;
37857;SDS011;23695;55.868;37.472;2022-12-29T09:25:53;6.35;;;1.85;;
37857;SDS011;23695;55.868;37.472;2022-12-29T09:28:21;5.50;;;2.30;;
37857;SDS011;23695;55.868;37.472;2022-12-29T09:30:48;5.80;;;1.83;;
37857;SDS011;23695;55.868;37.472;2022-12-29T09:33:15;5.10;;;1.88;;
37857;SDS011;23695;55.868;37.472;2022-12-29T09:35:42;3.50;;;1.75;;
37857;SDS011;23695;55.868;37.472;2022-12-29T09:38:08;3.88;;;2.00;;
37857;SDS011;23695;55.868;37.472;2022-12-29T09:40:35;7.10;;;1.98;;
37857;SDS011;23695;55.868;37.472;2022-12-29T09:45:40;7.40;;;2.28;;
37857;SDS011;23695;55.868;37.472;2022-12-29T09:48:18;4.22;;;2.05;;
37857;SDS011;23695;55.868;37.472;2022-12-29T09:50:50;4.35;;;1.88;;
37857;SDS011;23695;55.868;37.472;2022-12-29T09:53:25;6.80;;;2.03;;
37857;SDS011;23695;55.868;37.472;2022-12-29T09:55:55;5.63;;;2.05;;
37857;SDS011;23695;55.868;37.472;2022-12-29T10:03:30;6.28;;;2.00;;
37857;SDS011;23695;55.868;37.472;2022-12-29T10:08:34;5.65;;;1.80;;
37857;SDS011;23695;55.868;37.472;2022-12-29T10:16:15;4.88;;;1.60;;
37857;SDS011;23695;55.868;37.472;2022-12-29T10:23:40;4.13;;;2.10;;
37857;SDS011;23695;55.868;37.472;2022-12-29T10:26:09;6.88;;;1.90;;
37857;SDS011;23695;55.868;37.472;2022-12-29T10:28:44;12.10;;;2.40;;
37857;SDS011;23695;55.868;37.472;2022-12-29T10:31:13;6.78;;;2.38;;
37857;SDS011;23695;55.868;37.472;2022-12-29T10:33:42;6.25;;;2.97;;
37857;SDS011;23695;55.868;37.472;2022-12-29T10:36:17;6.15;;;2.05;;
37857;SDS011;23695;55.868;37.472;2022-12-29T10:38:47;9.07;;;2.22;;
37857;SDS011;23695;55.868;37.472;2022-12-29T10:41:15;8.52;;;2.20;;
37857;SDS011;23695;55.868;37.472;2022-12-29T10:43:51;8.82;;;1.83;;
37857;SDS011;23695;55.868;37.472;2022-12-29T10:46:20;3.53;;;1.98;;
37857;SDS011;23695;55.868;37.472;2022-12-29T10:48:48;6.78;;;2.10;;
37857;SDS011;23695;55.868;37.472;2022-12-29T10:51:18;4.95;;;1.88;;
37857;SDS011;23695;55.868;37.472;2022-12-29T10:53:51;11.80;;;2.25;;
37857;SDS011;23695;55.868;37.472;2022-12-29T10:56:25;7.35;;;1.98;;
37857;SDS011;23695;55.868;37.472;2022-12-29T10:58:54;6.40;;;2.53;;
37857;SDS011;23695;55.868;37.472;2022-12-29T11:01:21;6.28;;;2.17;;
37857;SDS011;23695;55.868;37.472;2022-12-29T11:03:55;6.28;;;1.70;;
37857;SDS011;23695;55.868;37.472;2022-12-29T11:06:25;5.18;;;2.30;;
37857;SDS011;23695;55.868;37.472;2022-12-29T11:09:01;5.57;;;2.00;;
37857;SDS011;23695;55.868;37.472;2022-12-29T11:11:35;3.10;;;1.70;;
37857;SDS011;23695;55.868;37.472;2022-12-29T11:16:37;3.50;;;1.50;;
37857;SDS011;23695;55.868;37.472;2022-12-29T11:19:04;7.45;;;1.90;;
37857;SDS011;23695;55.868;37.472;2022-12-29T11:21:32;4.55;;;1.73;;
37857;SDS011;23695;55.868;37.472;2022-12-29T11:24:03;2.55;;;1.15;;
37857;SDS011;23695;55.868;37.472;2022-12-29T11:26:31;3.25;;;1.73;;
37857;SDS011;23695;55.868;37.472;2022-12-29T11:29:05;4.10;;;1.50;;
37857;SDS011;23695;55.868;37.472;2022-12-29T11:31:39;3.22;;;1.23;;
37857;SDS011;23695;55.868;37.472;2022-12-29T11:34:06;4.63;;;1.70;;
37857;SDS011;23695;55.868;37.472;2022-12-29T11:36:33;3.20;;;1.40;;
37857;SDS011;23695;55.868;37.472;2022-12-29T11:39:00;3.08;;;1.50;;
37857;SDS011;23695;55.868;37.472;2022-12-29T11:41:27;4.63;;;1.20;;
37857;SDS011;23695;55.868;37.472;2022-12-29T11:43:58;3.75;;;1.58;;
37857;SDS011;23695;55.868;37.472;2022-12-29T11:46:36;6.43;;;1.50;;
37857;SDS011;23695;55.868;37.472;2022-12-29T11:49:03;5.53;;;1.38;;
37857;SDS011;23695;55.868;37.472;2022-12-29T11:51:41;2.15;;;1.33;;
37857;SDS011;23695;55.868;37.472;2022-12-29T11:54:09;3.33;;;1.30;;
37857;SDS011;23695;55.868;37.472;2022-12-29T11:56:41;2.22;;;1.23;;
37857;SDS011;23695;55.868;37.472;2022-12-29T11:59:24;2.60;;;1.05;;
37857;SDS011;23695;55.868;37.472;2022-12-29T12:01:56;2.38;;;1.25;;
37857;SDS011;23695;55.868;37.472;2022-12-29T12:04:25;3.17;;;1.27;;
37857;SDS011;23695;55.868;37.472;2022-12-29T12:09:24;1.65;;;1.00;;
37857;SDS011;23695;55.868;37.472;2022-12-29T12:11:51;2.45;;;1.13;;
37857;SDS011;23695;55.868;37.472;2022-12-29T12:19:37;3.53;;;1.08;;
37857;SDS011;23695;55.868;37.472;2022-12-29T12:25:02;2.35;;;1.10;;
37857;SDS011;23695;55.868;37.472;2022-12-29T12:27:36;3.03;;;1.37;;
37857;SDS011;23695;55.868;37.472;2022-12-29T12:30:26;2.75;;;1.10;;
37857;SDS011;23695;55.868;37.472;2022-12-29T12:37:59;2.00;;;1.20;;
37857;SDS011;23695;55.868;37.472;2022-12-29T12:40:45;2.83;;;1.10;;
37857;SDS011;23695;55.868;37.472;2022-12-29T12:56:41;9.02;;;2.35;;
37857;SDS011;23695;55.868;37.472;2022-12-29T12:59:21;4.68;;;2.28;;
37857;SDS011;23695;55.868;37.472;2022-12-29T13:04:46;7.93;;;2.10;;
37857;SDS011;23695;55.868;37.472;2022-12-29T13:10:15;3.78;;;1.77;;
37857;SDS011;23695;55.868;37.472;2022-12-29T13:15:41;5.03;;;2.17;;
37857;SDS011;23695;55.868;37.472;2022-12-29T13:20:59;7.00;;;2.17;;
37857;SDS011;23695;55.868;37.472;2022-12-29T13:29:16;4.68;;;2.00;;
37857;SDS011;23695;55.868;37.472;2022-12-29T13:31:46;6.50;;;1.90;;
37857;SDS011;23695;55.868;37.472;2022-12-29T13:36:53;4.93;;;2.05;;
37857;SDS011;23695;55.868;37.472;2022-12-29T13:41:51;6.83;;;2.30;;
37857;SDS011;23695;55.868;37.472;2022-12-29T13:44:23;6.80;;;2.53;;
37857;SDS011;23695;55.868;37.472;2022-12-29T13:46:51;5.90;;;2.40;;
37857;SDS011;23695;55.868;37.472;2022-12-29T13:49:19;5.72;;;2.47;;
37857;SDS011;23695;55.868;37.472;2022-12-29T13:51:47;4.07;;;2.42;;
37857;SDS011;23695;55.868;37.472;2022-12-29T13:54:26;5.40;;;2.30;;
37857;SDS011;23695;55.868;37.472;2022-12-29T13:59:44;6.03;;;2.42;;
37857;SDS011;23695;55.868;37.472;2022-12-29T14:02:37;7.75;;;2.90;;
37857;SDS011;23695;55.868;37.472;2022-12-29T14:07:45;5.50;;;2.58;;
37857;SDS011;23695;55.868;37.472;2022-12-29T14:10:32;5.72;;;2.95;;
37857;SDS011;23695;55.868;37.472;2022-12-29T14:13:00;5.45;;;2.80;;
37857;SDS011;23695;55.868;37.472;2022-12-29T14:15:28;5.07;;;2.55;;
37857;SDS011;23695;55.868;37.472;2022-12-29T14:18:09;7.93;;;2.80;;
37857;SDS011;23695;55.868;37.472;2022-12-29T14:20:36;5.60;;;2.63;;
37857;SDS011;23695;55.868;37.472;2022-12-29T14:28:28;6.05;;;2.83;;
37857;SDS011;23695;55.868;37.472;2022-12-29T14:30:56;10.77;;;3.65;;
37857;SDS011;23695;55.868;37.472;2022-12-29T14:33:23;6.75;;;2.42;;
37857;SDS011;23695;55.868;37.472;2022-12-29T14:35:50;8.85;;;3.00;;
37857;SDS011;23695;55.868;37.472;2022-12-29T14:38:18;4.88;;;3.03;;
37857;SDS011;23695;55.868;37.472;2022-12-29T14:40:45;6.55;;;3.05;;
37857;SDS011;23695;55.868;37.472;2022-12-29T14:43:13;5.75;;;2.78;;
37857;SDS011;23695;55.868;37.472;2022-12-29T14:45:43;6.30;;;3.10;;
37857;SDS011;23695;55.868;37.472;2022-12-29T14:48:39;5.30;;;3.22;;
37857;SDS011;23695;55.868;37.472;2022-12-29T14:51:17;6.30;;;3.25;;
37857;SDS011;23695;55.868;37.472;2022-12-29T14:53:48;6.70;;;3.55;;
37857;SDS011;23695;55.868;37.472;2022-12-29T14:56:16;7.05;;;3.25;;
37857;SDS011;23695;55.868;37.472;2022-12-29T15:03:49;8.02;;;3.10;;
37857;SDS011;23695;55.868;37.472;2022-12-29T15:06:17;7.95;;;3.75;;
37857;SDS011;23695;55.868;37.472;2022-12-29T15:08:47;7.80;;;4.10;;
37857;SDS011;23695;55.868;37.472;2022-12-29T15:11:20;9.60;;;3.78;;
37857;SDS011;23695;55.868;37.472;2022-12-29T15:13:48;9.82;;;3.95;;
37857;SDS011;23695;55.868;37.472;2022-12-29T15:18:47;6.22;;;3.83;;
37857;SDS011;23695;55.868;37.472;2022-12-29T15:21:14;10.15;;;4.40;;
37857;SDS011;23695;55.868;37.472;2022-12-29T15:23:42;6.55;;;4.07;;
37857;SDS011;23695;55.868;37.472;2022-12-29T15:26:09;10.57;;;4.10;;
37857;SDS011;23695;55.868;37.472;2022-12-29T15:28:43;8.98;;;3.63;;
37857;SDS011;23695;55.868;37.472;2022-12-29T15:31:14;7.60;;;3.58;;
37857;SDS011;23695;55.868;37.472;2022-12-29T15:34:03;9.50;;;3.67;;
37857;SDS011;23695;55.868;37.472;2022-12-29T15:36:41;7.53;;;3.65;;
37857;SDS011;23695;55.868;37.472;2022-12-29T15:39:30;8.02;;;3.17;;
37857;SDS011;23695;55.868;37.472;2022-12-29T15:42:02;7.43;;;4.00;;
37857;SDS011;23695;55.868;37.472;2022-12-29T15:44:32;7.25;;;3.47;;
37857;SDS011;23695;55.868;37.472;2022-12-29T15:47:16;8.75;;;3.60;;
37857;SDS011;23695;55.868;37.472;2022-12-29T15:49:44;6.13;;;3.20;;
37857;SDS011;23695;55.868;37.472;2022-12-29T15:52:20;8.27;;;3.58;;
37857;SDS011;23695;55.868;37.472;2022-12-29T15:54:51;7.53;;;3.58;;
37857;SDS011;23695;55.868;37.472;2022-12-29T15:57:38;5.75;;;3.22;;
37857;SDS011;23695;55.868;37.472;2022-12-29T16:00:32;9.05;;;3.80;;
37857;SDS011;23695;55.868;37.472;2022-12-29T16:03:00;9.35;;;3.25;;
37857;SDS011;23695;55.868;37.472;2022-12-29T16:05:33;8.43;;;3.88;;
37857;SDS011;23695;55.868;37.472;2022-12-29T16:08:00;6.50;;;3.40;;
37857;SDS011;23695;55.868;37.472;2022-12-29T16:10:37;10.30;;;3.67;;
37857;SDS011;23695;55.868;37.472;2022-12-29T16:15:47;7.88;;;3.67;;
37857;SDS011;23695;55.868;37.472;2022-12-29T16:18:22;7.50;;;3.60;;
37857;SDS011;23695;55.868;37.472;2022-12-29T16:20:50;8.65;;;3.60;;
37857;SDS011;23695;55.868;37.472;2022-12-29T16:23:20;5.13;;;3.30;;
37857;SDS011;23695;55.868;37.472;2022-12-29T16:28:56;7.68;;;3.33;;
37857;SDS011;23695;55.868;37.472;2022-12-29T16:31:04;7.47;;;3.15;;
37857;SDS011;23695;55.868;37.472;2022-12-29T16:36:25;7.18;;;3.25;;
37857;SDS011;23695;55.868;37.472;2022-12-29T16:41:38;5.32;;;3.28;;
37857;SDS011;23695;55.868;37.472;2022-12-29T16:49:37;7.03;;;3.33;;
37857;SDS011;23695;55.868;37.472;2022-12-29T16:52:11;4.97;;;3.00;;
37857;SDS011;23695;55.868;37.472;2022-12-29T16:54:38;8.30;;;3.22;;
37857;SDS011;23695;55.868;37.472;2022-12-29T16:57:05;5.10;;;3.00;;
37857;SDS011;23695;55.868;37.472;2022-12-29T16:59:37;7.07;;;3.45;;
37857;SDS011;23695;55.868;37.472;2022-12-29T17:02:07;5.47;;;2.97;;
37857;SDS011;23695;55.868;37.472;2022-12-29T17:04:37;6.95;;;3.30;;